หน้าหลัก
METAR-TAF:

METAR-TAF

ท่าอากาศยาน :

Odense, เดนมาร์ก

ละติจูด: 55-29N, ลองจิจูด: 010-20E, ความสูง: 17 ม.

การสังเกตสภาพอากาศปัจจุบัน

รายงานได้ทำขึ้นเมื่อ 8 ชั่วโมงและ 19 นาทีที่แล้ว ณ เวลา 15:50 UTC
ลม 8 นอตจากตะวันออก, แปรผันระหว่างตะวันออกเฉียงเหนือ และตะวันออกเฉียงใต้
อุณหภูมิ 23°C
ความชื้น 50%
ความกดอากาศ 1020 hPa
ทัศนวิสัย 10 กม. หรือมากกว่า
มีเมฆน้อยที่ความสูง 4100 ฟุต

METAR: EKOD 191550Z 08008KT 040V130 9999 FEW041 23/12 Q1020

เวลา: 02:09 (00:09 UTC)

การพยากรณ์

รายงานได้ทำขึ้นเมื่อ 12 ชั่วโมงและ 9 นาทีที่แล้ว ณ เวลา 12:00 UTC
การพยากรณ์มีผลตั้งแต่วันที่ 19 ณ เวลา 12 UTC จนถึงวันที่ 19 ณ เวลา 16 UTC
ลม 7 นอตจากตะวันออก/ตะวันออกเฉียงเหนือ
ทัศนวิสัย 10 กม. หรือมากกว่า
มีเมฆน้อยที่ความสูง 4000 ฟุต

TAF: EKOD 191200Z 1912/1916 06007KT 9999 FEW040

สังเกตการณ์สภาพอากาศและพยากรณ์อากาศของสนามบินมากกว่า 4000 แห่ง (รายงาน METAR และ TAF).

สถานีที่ดูได้จะแสดงไว้ด้วยจุดสีเหลืองและสีแดงบนแผนที่.

เลื่อนเมาส์ไปเหนือจุดเพื่อดูชื่อสถานี.

แล้วคลิกเพื่อดูสังเกตการณ์และการพยากรณ์สภาพอากาศ.

ในการเปลี่ยนแผนที่: คลิกที่ปุ่มสีเขียวที่มีกากบาทสีดำเพื่อซูมเข้า; ที่ปุ่มสีเขียวที่มีขีดเพื่อซูมออก; หรือที่ลูกศรสีเขียวเพื่อไปยังแผนที่ที่อยู่ติดกัน.


METAR-TAF: